sensor_id;sensor_type;location;lat;lon;timestamp;temperature;humidity
40660;DHT22;26753;45.544;9.232;2023-02-01T08:33:11;11.40;99.90
40660;DHT22;26753;45.544;9.232;2023-02-01T08:40:29;11.80;99.90
40660;DHT22;26753;45.544;9.232;2023-02-01T08:42:58;8.70;99.90
40660;DHT22;26753;45.544;9.232;2023-02-01T08:45:26;9.90;99.90
40660;DHT22;26753;45.544;9.232;2023-02-01T08:47:54;9.90;99.90
40660;DHT22;26753;45.544;9.232;2023-02-01T08:50:20;9.10;99.90
40660;DHT22;26753;45.544;9.232;2023-02-01T08:52:49;8.30;99.90
40660;DHT22;26753;45.544;9.232;2023-02-01T08:55:15;8.90;99.90
40660;DHT22;26753;45.544;9.232;2023-02-01T08:58:07;9.40;99.90
40660;DHT22;26753;45.544;9.232;2023-02-01T09:00:48;9.40;99.90
40660;DHT22;26753;45.544;9.232;2023-02-01T09:03:15;9.20;99.90
40660;DHT22;26753;45.544;9.232;2023-02-01T09:05:51;9.90;99.90
40660;DHT22;26753;45.544;9.232;2023-02-01T09:08:16;10.60;99.90
40660;DHT22;26753;45.544;9.232;2023-02-01T09:10:47;10.20;99.90
40660;DHT22;26753;45.544;9.232;2023-02-01T09:13:13;12.90;99.90
40660;DHT22;26753;45.544;9.232;2023-02-01T09:15:41;12.30;99.90
40660;DHT22;26753;45.544;9.232;2023-02-01T09:18:07;10.60;99.90
40660;DHT22;26753;45.544;9.232;2023-02-01T09:20:33;10.50;99.90
40660;DHT22;26753;45.544;9.232;2023-02-01T09:22:58;13.00;99.90
40660;DHT22;26753;45.544;9.232;2023-02-01T09:25:25;10.80;99.90
40660;DHT22;26753;45.544;9.232;2023-02-01T09:27:51;11.60;99.90
40660;DHT22;26753;45.544;9.232;2023-02-01T09:30:17;12.20;99.90
40660;DHT22;26753;45.544;9.232;2023-02-01T09:32:42;12.10;99.90
40660;DHT22;26753;45.544;9.232;2023-02-01T09:35:08;11.30;99.90
40660;DHT22;26753;45.544;9.232;2023-02-01T09:37:36;10.90;99.90
40660;DHT22;26753;45.544;9.232;2023-02-01T09:40:03;13.00;99.90
40660;DHT22;26753;45.544;9.232;2023-02-01T09:42:35;11.30;99.90
40660;DHT22;26753;45.544;9.232;2023-02-01T09:47:34;11.50;99.90
40660;DHT22;26753;45.544;9.232;2023-02-01T09:50:02;12.90;99.90
40660;DHT22;26753;45.544;9.232;2023-02-01T09:52:31;11.30;99.60
40660;DHT22;26753;45.544;9.232;2023-02-01T09:55:01;11.30;99.40
40660;DHT22;26753;45.544;9.232;2023-02-01T09:58:09;13.30;99.20
40660;DHT22;26753;45.544;9.232;2023-02-01T10:00:33;13.30;99.30
40660;DHT22;26753;45.544;9.232;2023-02-01T10:02:59;11.40;98.70
40660;DHT22;26753;45.544;9.232;2023-02-01T10:10:40;13.30;98.60
40660;DHT22;26753;45.544;9.232;2023-02-01T10:15:59;12.50;98.00
40660;DHT22;26753;45.544;9.232;2023-02-01T10:18:48;14.20;98.60
40660;DHT22;26753;45.544;9.232;2023-02-01T10:26:46;12.60;99.00
40660;DHT22;26753;45.544;9.232;2023-02-01T10:29:18;13.80;99.40
40660;DHT22;26753;45.544;9.232;2023-02-01T10:34:26;12.50;98.70
40660;DHT22;26753;45.544;9.232;2023-02-01T10:39:17;14.60;99.90
40660;DHT22;26753;45.544;9.232;2023-02-01T10:41:44;17.00;99.90
40660;DHT22;26753;45.544;9.232;2023-02-01T10:44:20;13.70;99.90
40660;DHT22;26753;45.544;9.232;2023-02-01T10:46:53;13.70;99.90
40660;DHT22;26753;45.544;9.232;2023-02-01T10:49:41;14.60;99.90
40660;DHT22;26753;45.544;9.232;2023-02-01T10:52:18;15.20;99.90
40660;DHT22;26753;45.544;9.232;2023-02-01T10:54:48;13.10;99.90
40660;DHT22;26753;45.544;9.232;2023-02-01T10:57:21;14.30;99.90
40660;DHT22;26753;45.544;9.232;2023-02-01T10:59:58;14.10;99.90
40660;DHT22;26753;45.544;9.232;2023-02-01T11:02:31;14.50;99.90
40660;DHT22;26753;45.544;9.232;2023-02-01T11:05:02;14.00;99.90
40660;DHT22;26753;45.544;9.232;2023-02-01T11:07:29;14.40;99.90
40660;DHT22;26753;45.544;9.232;2023-02-01T11:09:57;14.80;99.90
40660;DHT22;26753;45.544;9.232;2023-02-01T11:12:33;15.20;99.90
40660;DHT22;26753;45.544;9.232;2023-02-01T11:17:35;15.10;99.90
40660;DHT22;26753;45.544;9.232;2023-02-01T11:20:44;15.20;99.90
40660;DHT22;26753;45.544;9.232;2023-02-01T11:22:54;15.30;99.90
40660;DHT22;26753;45.544;9.232;2023-02-01T11:25:23;15.50;99.90
40660;DHT22;26753;45.544;9.232;2023-02-01T11:27:50;16.00;99.90
40660;DHT22;26753;45.544;9.232;2023-02-01T11:30:17;15.70;99.90
40660;DHT22;26753;45.544;9.232;2023-02-01T11:32:56;16.40;99.90
40660;DHT22;26753;45.544;9.232;2023-02-01T11:35:24;15.80;99.90
40660;DHT22;26753;45.544;9.232;2023-02-01T11:37:59;15.90;99.90
40660;DHT22;26753;45.544;9.232;2023-02-01T11:40:43;15.90;99.90
40660;DHT22;26753;45.544;9.232;2023-02-01T11:43:17;16.00;99.90
40660;DHT22;26753;45.544;9.232;2023-02-01T11:45:54;16.00;99.90
40660;DHT22;26753;45.544;9.232;2023-02-01T11:48:21;16.70;99.90
40660;DHT22;26753;45.544;9.232;2023-02-01T11:50:55;16.00;99.90
40660;DHT22;26753;45.544;9.232;2023-02-01T12:00:53;16.70;99.90
40660;DHT22;26753;45.544;9.232;2023-02-01T12:12:06;16.70;99.60
40660;DHT22;26753;45.544;9.232;2023-02-01T12:19:31;16.70;99.30
40660;DHT22;26753;45.544;9.232;2023-02-01T12:27:47;17.20;99.20
40660;DHT22;26753;45.544;9.232;2023-02-01T12:42:43;19.40;93.00
40660;DHT22;26753;45.544;9.232;2023-02-01T12:45:16;18.90;93.80
40660;DHT22;26753;45.544;9.232;2023-02-01T12:47:50;19.60;93.40
40660;DHT22;26753;45.544;9.232;2023-02-01T12:50:31;24.80;86.20
40660;DHT22;26753;45.544;9.232;2023-02-01T12:55:55;31.90;63.10
40660;DHT22;26753;45.544;9.232;2023-02-01T13:03:33;37.20;51.10
40660;DHT22;26753;45.544;9.232;2023-02-01T13:06:06;37.80;49.90
40660;DHT22;26753;45.544;9.232;2023-02-01T13:11:10;38.00;47.60
40660;DHT22;26753;45.544;9.232;2023-02-01T13:13:56;38.80;47.40
40660;DHT22;26753;45.544;9.232;2023-02-01T13:16:29;38.70;46.50
40660;DHT22;26753;45.544;9.232;2023-02-01T13:18:59;37.60;45.40
40660;DHT22;26753;45.544;9.232;2023-02-01T13:21:26;38.50;45.40
40660;DHT22;26753;45.544;9.232;2023-02-01T13:23:53;38.90;45.10
40660;DHT22;26753;45.544;9.232;2023-02-01T13:26:19;39.50;45.20
40660;DHT22;26753;45.544;9.232;2023-02-01T13:29:04;40.00;44.20
40660;DHT22;26753;45.544;9.232;2023-02-01T13:41:56;40.30;42.90
40660;DHT22;26753;45.544;9.232;2023-02-01T13:44:34;41.90;42.80
40660;DHT22;26753;45.544;9.232;2023-02-01T13:47:03;41.50;42.40
40660;DHT22;26753;45.544;9.232;2023-02-01T13:49:30;41.40;42.70
40660;DHT22;26753;45.544;9.232;2023-02-01T13:51:57;42.50;42.00
40660;DHT22;26753;45.544;9.232;2023-02-01T13:54:24;42.30;41.50
40660;DHT22;26753;45.544;9.232;2023-02-01T13:56:50;42.90;41.60
40660;DHT22;26753;45.544;9.232;2023-02-01T14:02:35;41.30;41.30
40660;DHT22;26753;45.544;9.232;2023-02-01T14:04:47;41.10;41.20
40660;DHT22;26753;45.544;9.232;2023-02-01T14:07:17;40.70;41.40
40660;DHT22;26753;45.544;9.232;2023-02-01T14:09:43;41.40;41.40
40660;DHT22;26753;45.544;9.232;2023-02-01T14:15:24;40.90;41.10
40660;DHT22;26753;45.544;9.232;2023-02-01T14:17:50;40.10;41.10
40660;DHT22;26753;45.544;9.232;2023-02-01T14:23:00;38.80;41.30
40660;DHT22;26753;45.544;9.232;2023-02-01T14:25:36;39.80;41.70
40660;DHT22;26753;45.544;9.232;2023-02-01T14:28:01;39.90;41.50
40660;DHT22;26753;45.544;9.232;2023-02-01T14:30:35;38.50;42.10
40660;DHT22;26753;45.544;9.232;2023-02-01T14:33:23;38.70;41.70
40660;DHT22;26753;45.544;9.232;2023-02-01T14:35:55;39.10;42.00
40660;DHT22;26753;45.544;9.232;2023-02-01T14:38:24;40.70;42.20
40660;DHT22;26753;45.544;9.232;2023-02-01T14:40:50;40.40;41.90
40660;DHT22;26753;45.544;9.232;2023-02-01T14:43:45;40.20;42.10
40660;DHT22;26753;45.544;9.232;2023-02-01T14:46:14;41.60;41.70
40660;DHT22;26753;45.544;9.232;2023-02-01T14:48:42;39.70;41.60
40660;DHT22;26753;45.544;9.232;2023-02-01T14:51:15;38.80;42.00
40660;DHT22;26753;45.544;9.232;2023-02-01T14:53:56;38.00;42.10
40660;DHT22;26753;45.544;9.232;2023-02-01T14:56:26;38.50;42.60
40660;DHT22;26753;45.544;9.232;2023-02-01T15:02:01;40.60;41.80
40660;DHT22;26753;45.544;9.232;2023-02-01T15:04:27;42.30;41.70
40660;DHT22;26753;45.544;9.232;2023-02-01T15:06:54;42.20;41.30
40660;DHT22;26753;45.544;9.232;2023-02-01T15:09:36;42.00;41.50
40660;DHT22;26753;45.544;9.232;2023-02-01T15:14:42;40.30;41.90
40660;DHT22;26753;45.544;9.232;2023-02-01T15:19:55;35.40;42.20
40660;DHT22;26753;45.544;9.232;2023-02-01T15:22:27;30.70;45.00
40660;DHT22;26753;45.544;9.232;2023-02-01T15:24:54;27.50;48.30
40660;DHT22;26753;45.544;9.232;2023-02-01T15:27:23;25.00;51.10
40660;DHT22;26753;45.544;9.232;2023-02-01T15:30:07;23.20;53.90
40660;DHT22;26753;45.544;9.232;2023-02-01T15:32:41;22.10;56.20
40660;DHT22;26753;45.544;9.232;2023-02-01T15:38:17;20.80;59.60
40660;DHT22;26753;45.544;9.232;2023-02-01T15:40:52;20.20;60.90
40660;DHT22;26753;45.544;9.232;2023-02-01T15:43:18;19.60;62.70
40660;DHT22;26753;45.544;9.232;2023-02-01T15:45:47;19.10;64.30
40660;DHT22;26753;45.544;9.232;2023-02-01T15:48:14;18.70;65.50
40660;DHT22;26753;45.544;9.232;2023-02-01T15:50:44;18.50;66.50
40660;DHT22;26753;45.544;9.232;2023-02-01T15:53:20;18.20;67.30
40660;DHT22;26753;45.544;9.232;2023-02-01T15:55:46;17.80;68.80
40660;DHT22;26753;45.544;9.232;2023-02-01T15:58:20;17.50;69.60
40660;DHT22;26753;45.544;9.232;2023-02-01T16:00:50;17.50;70.60
40660;DHT22;26753;45.544;9.232;2023-02-01T16:03:37;17.40;71.50
40660;DHT22;26753;45.544;9.232;2023-02-01T16:06:07;17.20;72.70
40660;DHT22;26753;45.544;9.232;2023-02-01T16:08:33;16.90;73.90
40660;DHT22;26753;45.544;9.232;2023-02-01T16:11:14;16.90;74.90
40660;DHT22;26753;45.544;9.232;2023-02-01T16:13:40;16.70;75.50
40660;DHT22;26753;45.544;9.232;2023-02-01T16:16:31;16.70;76.70
40660;DHT22;26753;45.544;9.232;2023-02-01T16:18:57;16.50;77.60
40660;DHT22;26753;45.544;9.232;2023-02-01T16:21:28;16.50;78.60
40660;DHT22;26753;45.544;9.232;2023-02-01T16:23:54;16.40;79.60
40660;DHT22;26753;45.544;9.232;2023-02-01T16:26:20;16.20;81.00
40660;DHT22;26753;45.544;9.232;2023-02-01T16:28:46;16.10;81.90
40660;DHT22;26753;45.544;9.232;2023-02-01T16:31:38;16.00;83.00
40660;DHT22;26753;45.544;9.232;2023-02-01T16:34:04;15.80;84.70
40660;DHT22;26753;45.544;9.232;2023-02-01T16:36:31;15.70;85.40
40660;DHT22;26753;45.544;9.232;2023-02-01T16:38:57;15.50;86.20
40660;DHT22;26753;45.544;9.232;2023-02-01T16:41:26;15.40;87.00
40660;DHT22;26753;45.544;9.232;2023-02-01T16:43:54;15.30;87.80
40660;DHT22;26753;45.544;9.232;2023-02-01T16:46:21;15.20;88.80
40660;DHT22;26753;45.544;9.232;2023-02-01T16:48:58;15.00;89.80
40660;DHT22;26753;45.544;9.232;2023-02-01T16:51:25;13.80;90.10
40660;DHT22;26753;45.544;9.232;2023-02-01T16:53:57;14.00;90.60
40660;DHT22;26753;45.544;9.232;2023-02-01T16:56:24;15.20;91.50
40660;DHT22;26753;45.544;9.232;2023-02-01T16:58:53;14.70;91.90
40660;DHT22;26753;45.544;9.232;2023-02-01T17:01:19;15.40;92.50
40660;DHT22;26753;45.544;9.232;2023-02-01T17:03:45;15.30;92.80
40660;DHT22;26753;45.544;9.232;2023-02-01T17:06:11;15.10;93.10
40660;DHT22;26753;45.544;9.232;2023-02-01T17:08:39;14.30;93.50
40660;DHT22;26753;45.544;9.232;2023-02-01T17:11:05;14.50;93.90
40660;DHT22;26753;45.544;9.232;2023-02-01T17:13:31;14.30;94.20
40660;DHT22;26753;45.544;9.232;2023-02-01T17:16:00;13.00;94.10
40660;DHT22;26753;45.544;9.232;2023-02-01T17:18:34;14.10;94.90
40660;DHT22;26753;45.544;9.232;2023-02-01T17:21:00;14.50;95.10
40660;DHT22;26753;45.544;9.232;2023-02-01T17:23:27;14.00;95.30
40660;DHT22;26753;45.544;9.232;2023-02-01T17:25:55;14.60;96.00
40660;DHT22;26753;45.544;9.232;2023-02-01T17:28:21;14.60;96.20
40660;DHT22;26753;45.544;9.232;2023-02-01T17:30:47;12.90;96.00
40660;DHT22;26753;45.544;9.232;2023-02-01T17:33:27;13.80;96.50
40660;DHT22;26753;45.544;9.232;2023-02-01T17:35:54;13.40;96.80
40660;DHT22;26753;45.544;9.232;2023-02-01T17:38:20;13.50;97.00
40660;DHT22;26753;45.544;9.232;2023-02-01T17:40:46;12.20;96.70
40660;DHT22;26753;45.544;9.232;2023-02-01T17:43:12;13.10;97.50
40660;DHT22;26753;45.544;9.232;2023-02-01T17:45:40;14.30;98.10
40660;DHT22;26753;45.544;9.232;2023-02-01T17:48:11;12.60;97.60
40660;DHT22;26753;45.544;9.232;2023-02-01T17:50:39;13.50;98.10
40660;DHT22;26753;45.544;9.232;2023-02-01T17:53:05;13.00;98.10
40660;DHT22;26753;45.544;9.232;2023-02-01T17:55:35;14.30;98.60
40660;DHT22;26753;45.544;9.232;2023-02-01T17:58:01;13.60;98.50
40660;DHT22;26753;45.544;9.232;2023-02-01T18:00:26;13.20;98.30
40660;DHT22;26753;45.544;9.232;2023-02-01T18:02:52;13.70;98.70
40660;DHT22;26753;45.544;9.232;2023-02-01T18:05:21;11.60;98.00
40660;DHT22;26753;45.544;9.232;2023-02-01T18:07:47;14.40;98.80
40660;DHT22;26753;45.544;9.232;2023-02-01T18:10:13;13.60;98.70
40660;DHT22;26753;45.544;9.232;2023-02-01T18:12:38;13.60;98.40
40660;DHT22;26753;45.544;9.232;2023-02-01T18:15:14;15.30;98.80
40660;DHT22;26753;45.544;9.232;2023-02-01T18:17:41;13.50;98.40
40660;DHT22;26753;45.544;9.232;2023-02-01T18:20:11;13.30;98.50
40660;DHT22;26753;45.544;9.232;2023-02-01T18:22:37;13.40;98.40
40660;DHT22;26753;45.544;9.232;2023-02-01T18:25:08;13.30;98.60
40660;DHT22;26753;45.544;9.232;2023-02-01T18:27:34;13.50;98.50
40660;DHT22;26753;45.544;9.232;2023-02-01T18:30:00;13.40;98.30
40660;DHT22;26753;45.544;9.232;2023-02-01T18:32:28;14.60;99.00
40660;DHT22;26753;45.544;9.232;2023-02-01T18:34:54;12.40;98.40
40660;DHT22;26753;45.544;9.232;2023-02-01T18:37:22;13.00;98.50
40660;DHT22;26753;45.544;9.232;2023-02-01T18:39:48;13.30;98.80
40660;DHT22;26753;45.544;9.232;2023-02-01T18:42:21;13.40;98.80
40660;DHT22;26753;45.544;9.232;2023-02-01T18:44:46;13.30;98.90
40660;DHT22;26753;45.544;9.232;2023-02-01T18:47:12;13.20;99.20
40660;DHT22;26753;45.544;9.232;2023-02-01T18:49:37;13.90;99.40
40660;DHT22;26753;45.544;9.232;2023-02-01T18:52:03;13.30;99.30
40660;DHT22;26753;45.544;9.232;2023-02-01T18:54:30;13.10;99.20
40660;DHT22;26753;45.544;9.232;2023-02-01T18:56:59;13.30;99.30
40660;DHT22;26753;45.544;9.232;2023-02-01T18:59:24;12.80;99.80
40660;DHT22;26753;45.544;9.232;2023-02-01T19:01:50;12.20;99.90
40660;DHT22;26753;45.544;9.232;2023-02-01T19:04:19;12.70;99.90
40660;DHT22;26753;45.544;9.232;2023-02-01T19:06:44;12.80;99.90
40660;DHT22;26753;45.544;9.232;2023-02-01T19:09:10;13.50;99.90
40660;DHT22;26753;45.544;9.232;2023-02-01T19:11:36;13.00;99.90
40660;DHT22;26753;45.544;9.232;2023-02-01T19:16:27;12.30;99.90
40660;DHT22;26753;45.544;9.232;2023-02-01T19:18:53;13.50;99.90
40660;DHT22;26753;45.544;9.232;2023-02-01T19:21:18;11.60;99.90
40660;DHT22;26753;45.544;9.232;2023-02-01T19:23:44;12.90;99.90
40660;DHT22;26753;45.544;9.232;2023-02-01T19:26:14;11.60;99.90
40660;DHT22;26753;45.544;9.232;2023-02-01T19:28:40;10.80;99.90
40660;DHT22;26753;45.544;9.232;2023-02-01T19:31:06;13.20;99.90
40660;DHT22;26753;45.544;9.232;2023-02-01T19:33:32;12.10;99.90
40660;DHT22;26753;45.544;9.232;2023-02-01T19:35:59;11.60;99.90
40660;DHT22;26753;45.544;9.232;2023-02-01T19:38:25;12.10;99.90
40660;DHT22;26753;45.544;9.232;2023-02-01T19:40:54;11.90;99.90
40660;DHT22;26753;45.544;9.232;2023-02-01T19:43:23;13.30;99.90
40660;DHT22;26753;45.544;9.232;2023-02-01T19:45:48;12.00;99.90
40660;DHT22;26753;45.544;9.232;2023-02-01T19:48:14;12.50;99.90
40660;DHT22;26753;45.544;9.232;2023-02-01T19:50:41;11.50;99.90
40660;DHT22;26753;45.544;9.232;2023-02-01T19:53:07;13.30;99.90
40660;DHT22;26753;45.544;9.232;2023-02-01T19:55:33;12.50;99.90
40660;DHT22;26753;45.544;9.232;2023-02-01T19:57:59;13.70;99.90
40660;DHT22;26753;45.544;9.232;2023-02-01T20:00:26;11.10;99.90
40660;DHT22;26753;45.544;9.232;2023-02-01T20:02:52;12.10;99.90
40660;DHT22;26753;45.544;9.232;2023-02-01T20:05:20;11.80;99.90
40660;DHT22;26753;45.544;9.232;2023-02-01T20:07:48;11.00;99.90
40660;DHT22;26753;45.544;9.232;2023-02-01T20:10:14;11.00;99.90
40660;DHT22;26753;45.544;9.232;2023-02-01T20:12:39;8.30;99.90
40660;DHT22;26753;45.544;9.232;2023-02-01T20:15:05;11.70;99.90
40660;DHT22;26753;45.544;9.232;2023-02-01T20:17:33;9.40;99.90
40660;DHT22;26753;45.544;9.232;2023-02-01T20:20:00;11.00;99.90
40660;DHT22;26753;45.544;9.232;2023-02-01T20:22:26;11.00;99.90
40660;DHT22;26753;45.544;9.232;2023-02-01T20:24:55;12.60;99.90
40660;DHT22;26753;45.544;9.232;2023-02-01T20:29:48;11.80;99.90
40660;DHT22;26753;45.544;9.232;2023-02-01T20:32:16;10.00;99.90
40660;DHT22;26753;45.544;9.232;2023-02-01T20:34:42;9.60;99.90
40660;DHT22;26753;45.544;9.232;2023-02-01T20:37:07;10.80;99.90
40660;DHT22;26753;45.544;9.232;2023-02-01T20:39:33;10.50;99.90
40660;DHT22;26753;45.544;9.232;2023-02-01T20:41:59;9.70;99.90
40660;DHT22;26753;45.544;9.232;2023-02-01T20:44:24;11.80;99.90
40660;DHT22;26753;45.544;9.232;2023-02-01T20:46:53;11.70;99.90
40660;DHT22;26753;45.544;9.232;2023-02-01T20:49:18;9.50;99.90
40660;DHT22;26753;45.544;9.232;2023-02-01T20:51:46;10.60;99.90
40660;DHT22;26753;45.544;9.232;2023-02-01T20:54:12;11.60;99.90
40660;DHT22;26753;45.544;9.232;2023-02-01T20:56:38;12.00;99.90
40660;DHT22;26753;45.544;9.232;2023-02-01T20:59:04;11.30;99.90
40660;DHT22;26753;45.544;9.232;2023-02-01T21:01:35;9.70;99.90
40660;DHT22;26753;45.544;9.232;2023-02-01T21:04:04;10.20;99.90
40660;DHT22;26753;45.544;9.232;2023-02-01T21:06:30;10.30;99.90
40660;DHT22;26753;45.544;9.232;2023-02-01T21:08:55;10.80;99.90
40660;DHT22;26753;45.544;9.232;2023-02-01T21:11:21;9.20;99.90
40660;DHT22;26753;45.544;9.232;2023-02-01T21:13:47;11.50;99.90
40660;DHT22;26753;45.544;9.232;2023-02-01T21:16:19;11.40;99.90
40660;DHT22;26753;45.544;9.232;2023-02-01T21:18:48;10.80;99.90
40660;DHT22;26753;45.544;9.232;2023-02-01T21:21:16;11.90;99.90
40660;DHT22;26753;45.544;9.232;2023-02-01T21:23:42;9.30;99.90
40660;DHT22;26753;45.544;9.232;2023-02-01T21:26:27;8.90;99.90
40660;DHT22;26753;45.544;9.232;2023-02-01T21:29:05;10.10;99.90
40660;DHT22;26753;45.544;9.232;2023-02-01T21:31:35;10.20;99.90
40660;DHT22;26753;45.544;9.232;2023-02-01T21:34:01;10.10;99.90
40660;DHT22;26753;45.544;9.232;2023-02-01T21:36:26;10.50;99.90
40660;DHT22;26753;45.544;9.232;2023-02-01T21:38:55;9.70;99.90
40660;DHT22;26753;45.544;9.232;2023-02-01T21:41:28;10.50;99.90
40660;DHT22;26753;45.544;9.232;2023-02-01T21:44:13;9.30;99.90
40660;DHT22;26753;45.544;9.232;2023-02-01T21:46:44;10.00;99.90
40660;DHT22;26753;45.544;9.232;2023-02-01T21:49:10;10.60;99.90
40660;DHT22;26753;45.544;9.232;2023-02-01T21:51:36;9.50;99.90
40660;DHT22;26753;45.544;9.232;2023-02-01T21:54:05;9.80;99.90
40660;DHT22;26753;45.544;9.232;2023-02-01T21:56:37;10.80;99.90
40660;DHT22;26753;45.544;9.232;2023-02-01T21:59:06;11.40;99.90
40660;DHT22;26753;45.544;9.232;2023-02-01T22:01:39;9.20;99.90
40660;DHT22;26753;45.544;9.232;2023-02-01T22:04:11;9.80;99.90
40660;DHT22;26753;45.544;9.232;2023-02-01T22:06:38;10.60;99.90
40660;DHT22;26753;45.544;9.232;2023-02-01T22:09:17;10.60;99.90
40660;DHT22;26753;45.544;9.232;2023-02-01T22:11:43;10.60;99.90
40660;DHT22;26753;45.544;9.232;2023-02-01T22:14:09;8.60;99.90
40660;DHT22;26753;45.544;9.232;2023-02-01T22:16:35;9.80;99.90
40660;DHT22;26753;45.544;9.232;2023-02-01T22:19:03;9.50;99.90
40660;DHT22;26753;45.544;9.232;2023-02-01T22:21:32;10.10;99.90
40660;DHT22;26753;45.544;9.232;2023-02-01T22:23:58;11.50;99.90
40660;DHT22;26753;45.544;9.232;2023-02-01T22:26:24;9.30;99.90
40660;DHT22;26753;45.544;9.232;2023-02-01T22:31:18;10.20;99.90
40660;DHT22;26753;45.544;9.232;2023-02-01T22:33:47;12.40;99.90
40660;DHT22;26753;45.544;9.232;2023-02-01T22:36:16;10.50;99.90
40660;DHT22;26753;45.544;9.232;2023-02-01T22:38:48;10.00;99.90
40660;DHT22;26753;45.544;9.232;2023-02-01T22:41:14;9.00;99.90
40660;DHT22;26753;45.544;9.232;2023-02-01T22:43:40;11.60;99.90
40660;DHT22;26753;45.544;9.232;2023-02-01T22:46:07;9.20;99.90
40660;DHT22;26753;45.544;9.232;2023-02-01T22:48:34;9.00;99.90
40660;DHT22;26753;45.544;9.232;2023-02-01T22:51:04;10.30;99.90
40660;DHT22;26753;45.544;9.232;2023-02-01T22:56:03;9.00;99.90
40660;DHT22;26753;45.544;9.232;2023-02-01T22:58:29;9.10;99.90
40660;DHT22;26753;45.544;9.232;2023-02-01T23:01:05;9.00;99.90
40660;DHT22;26753;45.544;9.232;2023-02-01T23:05:59;8.80;99.90
40660;DHT22;26753;45.544;9.232;2023-02-01T23:10:56;8.80;99.90
40660;DHT22;26753;45.544;9.232;2023-02-01T23:13:22;9.40;99.90
40660;DHT22;26753;45.544;9.232;2023-02-01T23:18:13;8.50;99.90
40660;DHT22;26753;45.544;9.232;2023-02-01T23:20:39;8.60;99.90
40660;DHT22;26753;45.544;9.232;2023-02-01T23:25:31;7.10;99.90
40660;DHT22;26753;45.544;9.232;2023-02-01T23:27:56;8.30;99.90
40660;DHT22;26753;45.544;9.232;2023-02-01T23:30:25;6.90;99.90
40660;DHT22;26753;45.544;9.232;2023-02-01T23:32:51;8.80;99.90
40660;DHT22;26753;45.544;9.232;2023-02-01T23:35:17;7.30;99.90
40660;DHT22;26753;45.544;9.232;2023-02-01T23:37:42;10.10;99.90
40660;DHT22;26753;45.544;9.232;2023-02-01T23:42:37;9.80;99.90
40660;DHT22;26753;45.544;9.232;2023-02-01T23:45:22;11.50;99.90
40660;DHT22;26753;45.544;9.232;2023-02-01T23:47:51;6.70;99.90
40660;DHT22;26753;45.544;9.232;2023-02-01T23:50:25;8.30;99.90
40660;DHT22;26753;45.544;9.232;2023-02-01T23:52:54;9.90;99.90
40660;DHT22;26753;45.544;9.232;2023-02-01T23:57:56;11.10;99.90
